Time;durP1;ratioP1;P1;durP2;ratioP2;P2;SDS_P1;SDS_P2;PMS_P1;PMS_P2;Temp;Humidity;BMP_temperature;BMP_pressure;BME280_temperature;BME280_humidity;BME280_pressure;Samples;Min_cycle;Max_cycle;Signal;HPM_P1;HPM_P2
2022/05/23 00:01:51;;;;;;;;;;;15.80;83.30;;;;;;5079044;28;19977;-53
2022/05/23 00:04:17;;;;;;;;;;;15.80;84.90;;;;;;5082792;28;20026;-53
2022/05/23 00:06:42;;;;;;;;;;;15.80;83.90;;;;;;5080792;28;19927;-55
2022/05/23 00:09:08;;;;;;;;;;;15.80;80.90;;;;;;5084071;28;21333;-51
2022/05/23 00:11:34;;;;;;;;;;;15.80;84.00;;;;;;5083402;28;20631;-55
2022/05/23 00:13:59;;;;;;;;;;;15.70;83.40;;;;;;5083201;28;19944;-54
2022/05/23 00:16:26;;;;;;;;;;;15.70;84.00;;;;;;5077779;28;19939;-54
2022/05/23 00:18:52;;;;;;;;;;;15.70;85.60;;;;;;5082125;28;19924;-52
2022/05/23 00:21:18;;;;;;;;;;;15.70;82.40;;;;;;5083345;28;19931;-54
2022/05/23 00:23:44;;;;;;;;;;;15.70;86.40;;;;;;5087563;28;19924;-55
2022/05/23 00:26:11;;;;;;;;;;;15.70;85.70;;;;;;5087720;28;19924;-54
2022/05/23 00:28:38;;;;;;;;;;;15.70;84.20;;;;;;5081141;28;19924;-48
2022/05/23 00:31:04;;;;;;;;;;;15.70;80.90;;;;;;5078631;28;20037;-55
2022/05/23 00:36:14;;;;;;;;;;;15.70;84.60;;;;;;5089265;28;20352;-53
2022/05/23 00:38:39;;;;;;;;;;;15.70;85.40;;;;;;5086516;28;19931;-54
2022/05/23 00:44:01;;;;;;;;;;;15.70;85.20;;;;;;5054526;28;19924;-52
2022/05/23 00:46:26;;;;;;;;;;;15.70;78.10;;;;;;5085142;28;20451;-49
2022/05/23 00:48:52;;;;;;;;;;;15.60;85.20;;;;;;5079491;28;19931;-52
2022/05/23 00:51:18;;;;;;;;;;;15.60;83.20;;;;;;5098678;28;19920;-54
2022/05/23 00:53:51;;;;;;;;;;;15.60;85.30;;;;;;5083995;28;19920;-54
2022/05/23 00:56:19;;;;;;;;;;;15.60;83.50;;;;;;5087577;28;19935;-53
2022/05/23 00:58:47;;;;;;;;;;;15.60;84.00;;;;;;5089064;28;20329;-54
2022/05/23 01:01:14;;;;;;;;;;;15.50;83.80;;;;;;5087112;28;20428;-53
2022/05/23 01:03:40;;;;;;;;;;;15.50;83.90;;;;;;5084499;28;19938;-54
2022/05/23 01:06:06;;;;;;;;;;;15.50;85.70;;;;;;5085318;28;19993;-52
2022/05/23 01:08:35;;;;;;;;;;;15.40;83.90;;;;;;5077607;28;20379;-54
2022/05/23 01:11:01;;;;;;;;;;;15.40;84.90;;;;;;5083650;28;20002;-54
2022/05/23 01:13:26;;;;;;;;;;;15.50;85.70;;;;;;5082601;28;19928;-54
2022/05/23 01:15:52;;;;;;;;;;;15.40;86.40;;;;;;5085056;28;19940;-47
2022/05/23 01:18:18;;;;;;;;;;;15.40;86.60;;;;;;5080521;28;19959;-54
2022/05/23 01:20:46;;;;;;;;;;;15.40;86.30;;;;;;5085229;28;19920;-48
2022/05/23 01:23:14;;;;;;;;;;;15.40;85.20;;;;;;5086114;28;20463;-52
2022/05/23 01:25:44;;;;;;;;;;;15.40;86.30;;;;;;5081995;28;19928;-54
2022/05/23 01:28:11;;;;;;;;;;;15.30;87.60;;;;;;5084756;28;20440;-52
2022/05/23 01:30:37;;;;;;;;;;;15.30;85.90;;;;;;5085441;28;19927;-53
2022/05/23 01:33:03;;;;;;;;;;;15.30;82.70;;;;;;5086473;28;19924;-47
2022/05/23 01:35:29;;;;;;;;;;;15.30;86.00;;;;;;5083249;28;20273;-53
2022/05/23 01:37:55;;;;;;;;;;;15.30;87.90;;;;;;5083967;28;20285;-54
2022/05/23 01:40:21;;;;;;;;;;;15.30;81.20;;;;;;5081830;28;19984;-50
2022/05/23 01:42:47;;;;;;;;;;;15.30;86.80;;;;;;5078973;28;19924;-49
2022/05/23 01:45:15;;;;;;;;;;;15.30;86.60;;;;;;5082797;28;20415;-51
2022/05/23 01:47:40;;;;;;;;;;;15.30;86.90;;;;;;5086111;28;19928;-53
2022/05/23 01:50:07;;;;;;;;;;;15.30;86.90;;;;;;5083042;28;20011;-53
2022/05/23 01:52:32;;;;;;;;;;;15.20;85.30;;;;;;5084096;28;19924;-52
2022/05/23 01:54:58;;;;;;;;;;;15.20;86.60;;;;;;5081771;28;20667;-53
2022/05/23 01:57:24;;;;;;;;;;;15.20;86.10;;;;;;5085893;28;19922;-53
2022/05/23 02:02:34;;;;;;;;;;;15.10;87.20;;;;;;5097931;28;19928;-54
2022/05/23 02:05:00;;;;;;;;;;;15.10;86.40;;;;;;5100991;28;19977;-55
2022/05/23 02:07:25;;;;;;;;;;;15.10;86.00;;;;;;5104207;28;20353;-54
2022/05/23 02:09:51;;;;;;;;;;;15.10;88.10;;;;;;5107377;28;19924;-54
2022/05/23 02:12:17;;;;;;;;;;;15.00;88.90;;;;;;5099600;28;20329;-54
2022/05/23 02:14:43;;;;;;;;;;;15.00;88.90;;;;;;5101848;28;19928;-52
2022/05/23 02:17:09;;;;;;;;;;;15.00;89.70;;;;;;5081090;28;20082;-53
2022/05/23 02:19:36;;;;;;;;;;;15.00;88.50;;;;;;5092224;28;19981;-54
2022/05/23 02:22:02;;;;;;;;;;;15.00;87.80;;;;;;5103295;28;19950;-53
2022/05/23 02:24:27;;;;;;;;;;;15.00;88.40;;;;;;5104069;28;20287;-51
2022/05/23 02:26:53;;;;;;;;;;;15.00;87.40;;;;;;5105286;28;19923;-52
2022/05/23 02:29:18;;;;;;;;;;;15.00;90.10;;;;;;5105043;28;19923;-52
2022/05/23 02:31:44;;;;;;;;;;;15.00;90.40;;;;;;5104962;28;20356;-51
2022/05/23 02:34:10;;;;;;;;;;;14.90;90.20;;;;;;5106301;28;19924;-53
2022/05/23 02:36:36;;;;;;;;;;;15.00;90.20;;;;;;5105280;28;20337;-50
2022/05/23 02:39:01;;;;;;;;;;;14.90;89.40;;;;;;5102971;28;19946;-52
2022/05/23 02:41:27;;;;;;;;;;;15.00;90.20;;;;;;5095083;28;19923;-52
2022/05/23 02:43:52;;;;;;;;;;;14.90;90.30;;;;;;5105247;28;20323;-54
2022/05/23 02:46:18;;;;;;;;;;;15.00;90.30;;;;;;5105425;28;19924;-54
2022/05/23 02:48:43;;;;;;;;;;;14.90;90.70;;;;;;5102931;28;19927;-52
2022/05/23 02:51:09;;;;;;;;;;;14.90;89.70;;;;;;5085450;28;19924;-53
2022/05/23 02:53:34;;;;;;;;;;;14.90;90.00;;;;;;5105565;28;20372;-53
2022/05/23 02:56:00;;;;;;;;;;;14.90;90.60;;;;;;5101552;28;20011;-54
2022/05/23 02:58:25;;;;;;;;;;;14.90;88.40;;;;;;5103737;27;20006;-51
2022/05/23 03:00:51;;;;;;;;;;;14.90;91.00;;;;;;5100737;28;19975;-54
2022/05/23 03:03:17;;;;;;;;;;;14.80;90.80;;;;;;5104542;28;19920;-51
2022/05/23 03:05:44;;;;;;;;;;;14.80;90.80;;;;;;5084262;28;19936;-54
2022/05/23 03:08:11;;;;;;;;;;;14.80;90.90;;;;;;5094664;28;19971;-53
2022/05/23 03:10:37;;;;;;;;;;;14.70;88.50;;;;;;5102827;28;19920;-54
2022/05/23 03:13:02;;;;;;;;;;;14.70;91.90;;;;;;5106034;28;19923;-52
2022/05/23 03:15:29;;;;;;;;;;;14.70;91.90;;;;;;5085061;28;19945;-53
2022/05/23 03:17:54;;;;;;;;;;;14.60;91.10;;;;;;5103190;28;19919;-53
2022/05/23 03:20:20;;;;;;;;;;;14.60;92.30;;;;;;5103081;28;19920;-53
2022/05/23 03:28:14;;;;;;;;;;;14.50;92.20;;;;;;5095810;28;19930;-50
2022/05/23 03:30:39;;;;;;;;;;;14.50;92.80;;;;;;5101485;28;20014;-51
2022/05/23 03:33:07;;;;;;;;;;;14.50;92.70;;;;;;5097247;28;19919;-52
2022/05/23 03:35:33;;;;;;;;;;;14.40;93.10;;;;;;5091919;28;19924;-53
2022/05/23 03:37:59;;;;;;;;;;;14.40;92.70;;;;;;5105376;28;19935;-52
2022/05/23 03:40:24;;;;;;;;;;;14.40;93.80;;;;;;5102180;28;19996;-53
2022/05/23 03:42:50;;;;;;;;;;;14.40;94.20;;;;;;5105041;28;20064;-52
2022/05/23 03:45:15;;;;;;;;;;;14.30;94.50;;;;;;5104165;28;19924;-54
2022/05/23 03:47:41;;;;;;;;;;;14.30;95.30;;;;;;5102676;28;19958;-54
2022/05/23 03:50:08;;;;;;;;;;;14.30;95.10;;;;;;5106313;28;19928;-53
2022/05/23 03:52:33;;;;;;;;;;;14.30;94.80;;;;;;5101453;28;20316;-52
2022/05/23 03:54:59;;;;;;;;;;;14.30;94.40;;;;;;5074753;28;19927;-50
2022/05/23 03:57:25;;;;;;;;;;;14.20;94.20;;;;;;5106107;28;20006;-53
2022/05/23 03:59:52;;;;;;;;;;;14.20;95.10;;;;;;5105059;28;19980;-50
2022/05/23 04:02:20;;;;;;;;;;;14.20;95.00;;;;;;5109057;28;19923;-53
2022/05/23 04:04:46;;;;;;;;;;;14.20;95.50;;;;;;5108701;28;19924;-53
2022/05/23 04:07:11;;;;;;;;;;;14.20;93.70;;;;;;5106780;28;19935;-54
2022/05/23 04:09:37;;;;;;;;;;;14.10;95.10;;;;;;5110279;28;20299;-54
2022/05/23 04:12:03;;;;;;;;;;;14.10;95.20;;;;;;5109897;28;20329;-54
2022/05/23 04:14:29;;;;;;;;;;;14.10;95.80;;;;;;5106991;28;20132;-51
2022/05/23 04:16:54;;;;;;;;;;;14.10;94.80;;;;;;5088562;28;19920;-48
2022/05/23 04:19:20;;;;;;;;;;;14.10;95.30;;;;;;5106710;28;19924;-50
2022/05/23 04:21:47;;;;;;;;;;;14.10;96.10;;;;;;5107969;28;19946;-53
2022/05/23 04:24:13;;;;;;;;;;;14.20;95.30;;;;;;5108547;28;20398;-52
2022/05/23 04:26:39;;;;;;;;;;;14.20;95.10;;;;;;5106913;28;19927;-51
2022/05/23 04:29:06;;;;;;;;;;;14.10;96.30;;;;;;5101515;28;19930;-51
2022/05/23 04:31:32;;;;;;;;;;;14.20;95.10;;;;;;5096466;28;20268;-53
2022/05/23 04:36:42;;;;;;;;;;;14.30;95.60;;;;;;5098977;28;20002;-54
2022/05/23 04:39:07;;;;;;;;;;;14.30;95.50;;;;;;5090354;28;20456;-53
2022/05/23 04:41:33;;;;;;;;;;;14.30;95.00;;;;;;5107713;28;19923;-53
2022/05/23 04:43:59;;;;;;;;;;;14.40;95.50;;;;;;5106913;28;19927;-50
2022/05/23 04:46:25;;;;;;;;;;;14.40;94.70;;;;;;5106572;28;19930;-53
2022/05/23 04:51:35;;;;;;;;;;;14.50;93.80;;;;;;5104878;28;19931;-52
2022/05/23 04:54:00;;;;;;;;;;;14.40;94.90;;;;;;5109232;27;20284;-52
2022/05/23 04:56:27;;;;;;;;;;;14.50;95.80;;;;;;5105736;28;19942;-54
2022/05/23 04:58:52;;;;;;;;;;;14.50;94.90;;;;;;5107818;28;19919;-52
2022/05/23 05:01:21;;;;;;;;;;;14.50;95.20;;;;;;5100829;27;20378;-52
2022/05/23 05:03:47;;;;;;;;;;;14.50;95.30;;;;;;5092431;28;19919;-52
2022/05/23 05:06:12;;;;;;;;;;;14.60;94.30;;;;;;5105531;28;20407;-53
2022/05/23 05:08:38;;;;;;;;;;;14.60;94.80;;;;;;5099208;28;20024;-53
2022/05/23 05:11:04;;;;;;;;;;;14.60;96.20;;;;;;5101815;28;19924;-51
2022/05/23 05:13:30;;;;;;;;;;;14.70;95.60;;;;;;5086743;28;19927;-52
2022/05/23 05:16:02;;;;;;;;;;;14.70;94.50;;;;;;5098948;28;20499;-53
2022/05/23 05:18:28;;;;;;;;;;;14.80;95.60;;;;;;5107208;28;20054;-54
2022/05/23 05:20:54;;;;;;;;;;;14.90;94.70;;;;;;5104829;28;19985;-52
2022/05/23 05:23:20;;;;;;;;;;;15.00;94.10;;;;;;5107658;28;19959;-49
2022/05/23 05:25:46;;;;;;;;;;;15.00;94.30;;;;;;5105711;28;19947;-54
2022/05/23 05:28:11;;;;;;;;;;;15.10;94.60;;;;;;5090909;28;20352;-54
2022/05/23 05:30:44;;;;;;;;;;;15.10;92.90;;;;;;5107357;28;19928;-52
2022/05/23 05:33:13;;;;;;;;;;;15.10;94.80;;;;;;5102553;28;19957;-47
2022/05/23 05:35:42;;;;;;;;;;;15.20;94.10;;;;;;5102186;28;20319;-53
2022/05/23 05:38:13;;;;;;;;;;;15.20;93.40;;;;;;5099677;28;19961;-53
2022/05/23 05:40:39;;;;;;;;;;;15.20;92.80;;;;;;5101292;28;19919;-52
2022/05/23 05:43:07;;;;;;;;;;;15.30;94.20;;;;;;5101429;28;19931;-53
2022/05/23 05:45:37;;;;;;;;;;;15.30;95.00;;;;;;5104720;28;20341;-51
2022/05/23 05:48:03;;;;;;;;;;;15.40;93.70;;;;;;5103833;28;20371;-47
2022/05/23 05:50:33;;;;;;;;;;;15.40;94.80;;;;;;5076110;28;20425;-53
2022/05/23 05:53:02;;;;;;;;;;;15.40;94.50;;;;;;5081880;28;20162;-52
2022/05/23 05:55:27;;;;;;;;;;;15.50;93.90;;;;;;5083172;28;20521;-52
2022/05/23 05:57:53;;;;;;;;;;;15.60;93.60;;;;;;5089214;28;20052;-53
2022/05/23 06:00:19;;;;;;;;;;;15.60;93.60;;;;;;5097736;28;20323;-53
2022/05/23 06:02:45;;;;;;;;;;;15.80;93.80;;;;;;5101603;28;19931;-51
2022/05/23 06:05:10;;;;;;;;;;;15.80;94.10;;;;;;5100872;28;19920;-50
2022/05/23 06:13:05;;;;;;;;;;;16.10;94.10;;;;;;5096023;28;19928;-47
2022/05/23 06:15:31;;;;;;;;;;;16.20;93.20;;;;;;5093723;27;19970;-47
2022/05/23 06:17:56;;;;;;;;;;;16.30;93.60;;;;;;5099976;28;19927;-48
2022/05/23 06:20:23;;;;;;;;;;;16.40;94.60;;;;;;5098011;28;20030;-53
2022/05/23 06:22:50;;;;;;;;;;;16.50;93.50;;;;;;5101964;28;19926;-51
2022/05/23 06:25:15;;;;;;;;;;;16.60;92.40;;;;;;5107308;28;19938;-50
2022/05/23 06:27:42;;;;;;;;;;;16.70;92.40;;;;;;5099260;28;20288;-49
2022/05/23 06:30:09;;;;;;;;;;;16.80;92.50;;;;;;5100665;28;19919;-49
2022/05/23 06:32:35;;;;;;;;;;;16.80;92.70;;;;;;5102621;28;19923;-50
2022/05/23 06:35:01;;;;;;;;;;;16.90;91.40;;;;;;5087779;28;19977;-52
2022/05/23 06:37:26;;;;;;;;;;;16.90;91.30;;;;;;5091808;28;19927;-50
2022/05/23 06:39:52;;;;;;;;;;;17.00;93.20;;;;;;5096079;28;19924;-52
2022/05/23 06:42:18;;;;;;;;;;;17.10;92.90;;;;;;5103982;28;19920;-51
2022/05/23 06:44:44;;;;;;;;;;;17.20;92.90;;;;;;5100007;28;20347;-49
2022/05/23 06:47:09;;;;;;;;;;;17.40;93.20;;;;;;5104561;28;19935;-52
2022/05/23 06:49:35;;;;;;;;;;;17.50;92.00;;;;;;5102427;28;19928;-52
2022/05/23 06:52:01;;;;;;;;;;;17.60;91.80;;;;;;5108833;28;19920;-52
2022/05/23 06:54:26;;;;;;;;;;;17.70;91.90;;;;;;5087899;28;19930;-53
2022/05/23 06:56:52;;;;;;;;;;;17.70;89.80;;;;;;5104201;28;19927;-53
2022/05/23 06:59:18;;;;;;;;;;;17.80;90.10;;;;;;5104658;28;20437;-52
2022/05/23 07:01:44;;;;;;;;;;;17.90;90.20;;;;;;5097189;28;19920;-53
2022/05/23 07:04:10;;;;;;;;;;;18.00;89.00;;;;;;5104109;28;19928;-51
2022/05/23 07:12:21;;;;;;;;;;;18.30;87.60;;;;;;5093543;28;20060;-52
2022/05/23 07:14:47;;;;;;;;;;;18.30;88.50;;;;;;5108554;28;19973;-48
2022/05/23 07:17:12;;;;;;;;;;;18.50;85.50;;;;;;5102759;28;19939;-51
2022/05/23 07:19:39;;;;;;;;;;;18.50;86.70;;;;;;5080836;28;19920;-49
2022/05/23 07:22:05;;;;;;;;;;;18.60;85.50;;;;;;5084191;28;19942;-52
2022/05/23 07:24:31;;;;;;;;;;;18.70;86.80;;;;;;5108275;28;20435;-49
2022/05/23 07:26:57;;;;;;;;;;;18.80;85.00;;;;;;5103713;28;19970;-51
2022/05/23 07:29:23;;;;;;;;;;;18.80;84.00;;;;;;5104106;28;19920;-53
2022/05/23 07:31:49;;;;;;;;;;;18.80;84.00;;;;;;5104317;28;19931;-50
2022/05/23 07:34:14;;;;;;;;;;;18.90;85.70;;;;;;5102850;28;19932;-53
2022/05/23 07:36:40;;;;;;;;;;;18.90;83.90;;;;;;5084084;28;19932;-52
2022/05/23 07:39:08;;;;;;;;;;;19.10;88.30;;;;;;5102443;28;19934;-47
2022/05/23 07:41:36;;;;;;;;;;;19.20;85.60;;;;;;5101438;28;20388;-53
2022/05/23 07:44:02;;;;;;;;;;;19.30;78.60;;;;;;5096133;28;19997;-52
2022/05/23 07:46:28;;;;;;;;;;;19.40;78.60;;;;;;5102509;28;19930;-54
2022/05/23 07:48:55;;;;;;;;;;;19.50;81.30;;;;;;5107812;28;20010;-53
2022/05/23 07:51:23;;;;;;;;;;;19.60;81.70;;;;;;5107749;28;19931;-53
2022/05/23 08:02:02;;;;;;;;;;;20.00;78.20;;;;;;5080946;28;19924;-52
2022/05/23 08:04:27;;;;;;;;;;;20.10;76.10;;;;;;5105762;28;20015;-53
2022/05/23 08:06:53;;;;;;;;;;;20.20;78.00;;;;;;5106141;28;20015;-51
2022/05/23 08:09:19;;;;;;;;;;;20.30;77.60;;;;;;5106922;28;19927;-53
2022/05/23 08:11:47;;;;;;;;;;;20.40;77.00;;;;;;5089195;28;20006;-53
2022/05/23 08:14:13;;;;;;;;;;;20.60;74.60;;;;;;5086042;28;19927;-51
2022/05/23 08:16:38;;;;;;;;;;;20.70;73.70;;;;;;5103054;28;19928;-49
2022/05/23 08:19:05;;;;;;;;;;;20.90;72.80;;;;;;5094945;28;19927;-51
2022/05/23 08:21:30;;;;;;;;;;;20.90;71.10;;;;;;5102560;28;19928;-49
2022/05/23 08:23:56;;;;;;;;;;;21.00;72.40;;;;;;5107264;28;20010;-45
2022/05/23 08:26:22;;;;;;;;;;;21.10;71.70;;;;;;5102952;28;19966;-53
2022/05/23 08:28:47;;;;;;;;;;;21.20;71.60;;;;;;5108551;28;19920;-52
2022/05/23 08:31:13;;;;;;;;;;;21.20;70.90;;;;;;5083925;28;19919;-51
2022/05/23 08:33:38;;;;;;;;;;;21.30;68.90;;;;;;5103678;28;21264;-53
2022/05/23 08:36:04;;;;;;;;;;;21.30;68.10;;;;;;5102627;28;19974;-53
2022/05/23 08:38:30;;;;;;;;;;;21.40;67.90;;;;;;5086716;28;19930;-53
2022/05/23 08:41:01;;;;;;;;;;;21.50;68.70;;;;;;5080516;28;20247;-52
2022/05/23 08:43:33;;;;;;;;;;;21.50;67.20;;;;;;5105646;28;19919;-50
2022/05/23 08:46:00;;;;;;;;;;;21.40;67.10;;;;;;5101138;28;19920;-49
2022/05/23 08:48:31;;;;;;;;;;;21.50;68.00;;;;;;5106079;28;19999;-46
2022/05/23 08:51:07;;;;;;;;;;;21.60;72.30;;;;;;5108208;27;19930;-50
2022/05/23 08:53:35;;;;;;;;;;;21.70;69.70;;;;;;5107464;28;20068;-47
2022/05/23 08:56:04;;;;;;;;;;;21.80;67.00;;;;;;5105355;28;19989;-49
2022/05/23 08:58:32;;;;;;;;;;;21.80;66.80;;;;;;5109308;28;19920;-51
2022/05/23 09:01:18;;;;;;;;;;;21.90;64.30;;;;;;5107358;27;20264;-50
2022/05/23 09:03:48;;;;;;;;;;;22.00;64.70;;;;;;5106717;28;20038;-51
2022/05/23 09:06:29;;;;;;;;;;;22.10;64.60;;;;;;5110814;28;20282;-54
2022/05/23 09:09:03;;;;;;;;;;;22.20;63.50;;;;;;5106974;27;19920;-49
2022/05/23 09:11:28;;;;;;;;;;;22.20;64.10;;;;;;5104216;27;19926;-52
2022/05/23 09:13:55;;;;;;;;;;;22.30;62.80;;;;;;5095747;28;19923;-50
2022/05/23 09:16:22;;;;;;;;;;;22.20;63.60;;;;;;5105399;28;19966;-49
2022/05/23 09:18:51;;;;;;;;;;;22.30;64.30;;;;;;5104009;28;19935;-49
2022/05/23 09:21:17;;;;;;;;;;;22.30;63.00;;;;;;5100086;28;20399;-51
2022/05/23 09:23:50;;;;;;;;;;;22.30;65.00;;;;;;5103891;28;20011;-52
2022/05/23 09:26:20;;;;;;;;;;;22.40;65.20;;;;;;5106149;28;19930;-48
2022/05/23 09:28:45;;;;;;;;;;;22.50;66.10;;;;;;5107150;27;20415;-50
2022/05/23 09:31:30;;;;;;;;;;;22.60;65.40;;;;;;5109527;28;20010;-54
2022/05/23 09:33:56;;;;;;;;;;;22.60;62.40;;;;;;5085783;28;20002;-48
2022/05/23 09:36:38;;;;;;;;;;;22.70;65.20;;;;;;5103998;28;20014;-48
2022/05/23 09:39:05;;;;;;;;;;;22.80;64.90;;;;;;5097426;28;20032;-50
2022/05/23 09:47:44;;;;;;;;;;;22.90;68.00;;;;;;5104706;28;19927;-49
2022/05/23 09:49:46;;;;;;;;;;;23.10;61.70;;;;;;5108826;28;19920;-45
2022/05/23 09:52:16;;;;;;;;;;;23.10;62.70;;;;;;5108565;28;20636;-56
2022/05/23 09:54:46;;;;;;;;;;;23.20;61.40;;;;;;5107532;28;19928;-51
2022/05/23 09:57:34;;;;;;;;;;;23.30;59.30;;;;;;5107948;28;20025;-50
2022/05/23 10:00:05;;;;;;;;;;;23.40;59.10;;;;;;5092889;28;19951;-48
2022/05/23 10:02:34;;;;;;;;;;;23.50;57.60;;;;;;5100231;28;20038;-52
2022/05/23 10:04:59;;;;;;;;;;;23.50;55.00;;;;;;5104182;28;20256;-48
2022/05/23 10:07:30;;;;;;;;;;;23.60;54.70;;;;;;5087599;28;19936;-47
2022/05/23 10:09:57;;;;;;;;;;;23.60;54.10;;;;;;5105952;28;20342;-51
2022/05/23 10:12:23;;;;;;;;;;;23.70;53.20;;;;;;5105424;28;19973;-48
2022/05/23 10:14:51;;;;;;;;;;;23.80;53.80;;;;;;5105574;28;20308;-46
2022/05/23 10:17:34;;;;;;;;;;;24.10;53.10;;;;;;5105707;28;19930;-46
2022/05/23 10:20:18;;;;;;;;;;;24.30;54.40;;;;;;5103315;28;20029;-46
2022/05/23 10:22:54;;;;;;;;;;;24.50;53.10;;;;;;5107986;28;19923;-49
2022/05/23 10:25:20;;;;;;;;;;;24.60;52.90;;;;;;5099015;28;20392;-49
2022/05/23 10:27:52;;;;;;;;;;;24.80;51.80;;;;;;5100821;28;20027;-44
2022/05/23 10:30:19;;;;;;;;;;;25.10;51.50;;;;;;5096869;28;19924;-46
2022/05/23 10:32:48;;;;;;;;;;;25.40;51.20;;;;;;5101943;28;19923;-48
2022/05/23 10:35:20;;;;;;;;;;;25.40;46.60;;;;;;5087610;28;19923;-49
2022/05/23 10:37:46;;;;;;;;;;;25.50;48.20;;;;;;5100868;28;19931;-50
2022/05/23 10:42:57;;;;;;;;;;;25.50;47.50;;;;;;5106073;28;19974;-47
2022/05/23 10:45:22;;;;;;;;;;;25.60;48.00;;;;;;5103202;28;20020;-49
2022/05/23 10:47:48;;;;;;;;;;;25.70;47.40;;;;;;5102063;28;20279;-47
2022/05/23 10:50:19;;;;;;;;;;;25.90;47.70;;;;;;5100857;28;19920;-51
2022/05/23 10:52:54;;;;;;;;;;;26.00;46.50;;;;;;5105527;28;19921;-49
2022/05/23 10:55:30;;;;;;;;;;;26.10;46.50;;;;;;5102528;28;20300;-50
2022/05/23 10:58:02;;;;;;;;;;;26.10;45.40;;;;;;5101543;28;20240;-51
2022/05/23 11:00:34;;;;;;;;;;;26.00;45.50;;;;;;5091927;28;19993;-47
2022/05/23 11:03:10;;;;;;;;;;;25.90;45.40;;;;;;5107668;28;19927;-49
2022/05/23 11:05:42;;;;;;;;;;;25.90;45.40;;;;;;5101140;28;19919;-49
2022/05/23 11:08:26;;;;;;;;;;;26.00;46.70;;;;;;5095172;28;20412;-50
2022/05/23 11:10:54;;;;;;;;;;;26.10;46.80;;;;;;5100829;28;19924;-48
2022/05/23 11:13:39;;;;;;;;;;;26.10;45.80;;;;;;5099998;28;19985;-49
2022/05/23 11:16:14;;;;;;;;;;;26.00;45.00;;;;;;5098833;28;21880;-48
2022/05/23 11:18:52;;;;;;;;;;;25.90;43.90;;;;;;5105885;28;20007;-48
2022/05/23 11:21:36;;;;;;;;;;;25.80;44.20;;;;;;5103230;28;20117;-49
2022/05/23 11:24:07;;;;;;;;;;;25.70;45.30;;;;;;5102298;28;19923;-51
2022/05/23 11:26:37;;;;;;;;;;;25.70;46.80;;;;;;5103061;28;19928;-50
2022/05/23 11:34:43;;;;;;;;;;;25.70;45.40;;;;;;5065988;28;20440;-51
2022/05/23 11:37:42;;;;;;;;;;;25.60;45.30;;;;;;5107903;28;19923;-51
2022/05/23 11:40:01;;;;;;;;;;;25.40;45.50;;;;;;5108704;28;20104;-49
2022/05/23 11:42:32;;;;;;;;;;;25.10;46.30;;;;;;5104016;28;19965;-49
2022/05/23 11:47:57;;;;;;;;;;;24.80;47.40;;;;;;5105544;28;20306;-48
2022/05/23 11:50:29;;;;;;;;;;;24.70;47.10;;;;;;5104360;28;19924;-50
2022/05/23 11:53:03;;;;;;;;;;;24.70;49.30;;;;;;5083997;28;19927;-49
2022/05/23 11:55:48;;;;;;;;;;;24.70;50.10;;;;;;5105688;28;19970;-50
2022/05/23 11:58:22;;;;;;;;;;;24.60;51.00;;;;;;5096243;28;20367;-51
2022/05/23 12:01:06;;;;;;;;;;;24.60;52.60;;;;;;5097802;28;20400;-50
2022/05/23 12:03:47;;;;;;;;;;;24.40;51.30;;;;;;5100042;28;19931;-45
2022/05/23 12:06:15;;;;;;;;;;;24.40;51.40;;;;;;5083789;28;19963;-51
2022/05/23 12:08:40;;;;;;;;;;;24.20;54.10;;;;;;5098401;28;19928;-51
2022/05/23 12:11:20;;;;;;;;;;;24.00;56.40;;;;;;5100704;28;19928;-51
2022/05/23 12:13:49;;;;;;;;;;;23.80;57.90;;;;;;5096668;28;19959;-47
2022/05/23 12:16:36;;;;;;;;;;;23.70;59.50;;;;;;5091672;28;20261;-51
2022/05/23 12:19:20;;;;;;;;;;;23.60;62.60;;;;;;5084981;28;19919;-51
2022/05/23 12:21:47;;;;;;;;;;;23.50;62.50;;;;;;5097568;28;19920;-50
2022/05/23 12:24:13;;;;;;;;;;;23.50;64.90;;;;;;5086878;28;20411;-47
2022/05/23 12:26:39;;;;;;;;;;;23.50;64.40;;;;;;5107478;28;19920;-51
2022/05/23 12:29:26;;;;;;;;;;;23.60;67.40;;;;;;5095442;27;19920;-47
2022/05/23 12:32:10;;;;;;;;;;;23.60;70.80;;;;;;5094845;28;19934;-48
2022/05/23 12:34:41;;;;;;;;;;;23.60;66.00;;;;;;5108562;28;20040;-51
2022/05/23 12:37:12;;;;;;;;;;;23.60;67.10;;;;;;5110157;28;20006;-50
2022/05/23 12:39:45;;;;;;;;;;;23.60;67.80;;;;;;5109799;28;20309;-52
2022/05/23 12:42:12;;;;;;;;;;;23.60;66.40;;;;;;5106013;28;19969;-47
2022/05/23 12:44:42;;;;;;;;;;;23.70;66.70;;;;;;5103705;28;19924;-50
2022/05/23 12:47:26;;;;;;;;;;;23.70;67.30;;;;;;5102461;28;19927;-48
2022/05/23 12:49:55;;;;;;;;;;;23.80;66.80;;;;;;5102777;28;20118;-48
2022/05/23 12:52:26;;;;;;;;;;;24.00;69.70;;;;;;5109319;28;19973;-50
2022/05/23 12:55:12;;;;;;;;;;;24.00;65.80;;;;;;5106177;27;19934;-45
2022/05/23 12:57:58;;;;;;;;;;;24.20;65.50;;;;;;5075348;28;19973;-50
2022/05/23 13:00:29;;;;;;;;;;;24.50;61.30;;;;;;5103637;28;19928;-51
2022/05/23 13:02:57;;;;;;;;;;;24.60;60.50;;;;;;5100198;28;19927;-48
2022/05/23 13:05:37;;;;;;;;;;;24.60;60.90;;;;;;5107122;28;20289;-47
2022/05/23 13:08:19;;;;;;;;;;;24.70;59.20;;;;;;5100691;28;19942;-50
2022/05/23 13:10:49;;;;;;;;;;;24.70;56.50;;;;;;5109084;28;20019;-50
2022/05/23 13:13:20;;;;;;;;;;;24.70;57.30;;;;;;5105675;28;19955;-50
2022/05/23 13:15:46;;;;;;;;;;;24.80;55.80;;;;;;5101403;28;19932;-51
2022/05/23 13:23:52;;;;;;;;;;;25.10;54.10;;;;;;5083329;28;19928;-50
2022/05/23 13:26:18;;;;;;;;;;;25.30;53.10;;;;;;5111599;28;20003;-51
2022/05/23 13:28:47;;;;;;;;;;;25.30;53.30;;;;;;5101525;28;19955;-51
2022/05/23 13:31:26;;;;;;;;;;;25.40;54.00;;;;;;5105117;28;20007;-49
2022/05/23 13:33:53;;;;;;;;;;;25.50;54.30;;;;;;5105473;28;19920;-52
2022/05/23 13:36:19;;;;;;;;;;;25.50;52.60;;;;;;5108071;28;20038;-49
2022/05/23 13:38:57;;;;;;;;;;;25.50;53.50;;;;;;5099585;28;19970;-47
2022/05/23 13:41:27;;;;;;;;;;;25.50;54.40;;;;;;5106474;28;19920;-46
2022/05/23 13:43:52;;;;;;;;;;;25.40;52.70;;;;;;5099240;28;19920;-50
2022/05/23 13:46:24;;;;;;;;;;;25.40;54.10;;;;;;5103047;28;19924;-48
2022/05/23 13:48:55;;;;;;;;;;;25.50;56.10;;;;;;5104377;28;20520;-51
2022/05/23 13:51:34;;;;;;;;;;;25.50;55.90;;;;;;5099431;28;19931;-51
2022/05/23 13:54:07;;;;;;;;;;;25.60;55.60;;;;;;5107856;28;19920;-51
2022/05/23 13:56:34;;;;;;;;;;;25.60;54.70;;;;;;5103429;28;19928;-51
2022/05/23 13:59:03;;;;;;;;;;;25.50;55.00;;;;;;5103636;28;19924;-50
2022/05/23 14:01:31;;;;;;;;;;;25.40;55.70;;;;;;5101923;28;19928;-46
2022/05/23 14:04:00;;;;;;;;;;;25.20;54.60;;;;;;5103981;28;20041;-46
2022/05/23 14:06:33;;;;;;;;;;;25.00;55.40;;;;;;5104290;28;19972;-49
2022/05/23 14:09:00;;;;;;;;;;;24.90;55.90;;;;;;5101521;28;19928;-50
2022/05/23 14:11:29;;;;;;;;;;;24.80;55.50;;;;;;5100875;28;19931;-56
2022/05/23 14:13:57;;;;;;;;;;;24.80;56.80;;;;;;5107380;28;19923;-50
2022/05/23 14:16:23;;;;;;;;;;;24.70;57.20;;;;;;5098975;28;19932;-49
2022/05/23 14:19:19;;;;;;;;;;;24.70;57.40;;;;;;5100293;28;19931;-50
2022/05/23 14:21:44;;;;;;;;;;;24.70;57.50;;;;;;5073695;28;19927;-51
2022/05/23 14:24:18;;;;;;;;;;;24.70;58.80;;;;;;5103309;28;19927;-45
2022/05/23 14:26:43;;;;;;;;;;;24.70;59.10;;;;;;5106263;28;20345;-49
2022/05/23 14:29:14;;;;;;;;;;;24.70;58.20;;;;;;5106506;28;20010;-49
2022/05/23 14:31:39;;;;;;;;;;;24.60;60.60;;;;;;5105118;28;19924;-52
2022/05/23 14:34:07;;;;;;;;;;;24.60;59.80;;;;;;5105516;28;19928;-51
2022/05/23 14:36:33;;;;;;;;;;;24.60;61.00;;;;;;5100476;28;20032;-52
2022/05/23 14:38:59;;;;;;;;;;;24.50;60.20;;;;;;5108016;28;19986;-49
2022/05/23 14:41:30;;;;;;;;;;;24.40;58.20;;;;;;5105580;28;20380;-49
2022/05/23 14:43:57;;;;;;;;;;;24.30;59.80;;;;;;5104646;28;20403;-51
2022/05/23 14:46:22;;;;;;;;;;;24.20;61.80;;;;;;5104164;28;20226;-51
2022/05/23 14:49:11;;;;;;;;;;;24.20;63.30;;;;;;5106992;28;19930;-50
2022/05/23 14:51:40;;;;;;;;;;;24.10;64.20;;;;;;5100575;28;19920;-45
2022/05/23 14:56:53;;;;;;;;;;;24.00;66.40;;;;;;5100740;28;19924;-48
2022/05/23 15:02:14;;;;;;;;;;;24.00;69.10;;;;;;5098132;28;19939;-53
2022/05/23 15:04:41;;;;;;;;;;;23.90;71.60;;;;;;5104514;28;19963;-50
2022/05/23 15:07:06;;;;;;;;;;;23.90;70.10;;;;;;5098511;28;19936;-51
2022/05/23 15:09:32;;;;;;;;;;;23.80;71.90;;;;;;5104312;28;19920;-53
2022/05/23 15:11:58;;;;;;;;;;;23.80;74.40;;;;;;5085857;28;19924;-51
2022/05/23 15:14:24;;;;;;;;;;;23.70;73.90;;;;;;5085760;28;20422;-52
2022/05/23 15:16:50;;;;;;;;;;;23.70;75.80;;;;;;5102468;28;20316;-52
2022/05/23 15:19:18;;;;;;;;;;;23.70;73.10;;;;;;5105658;28;19923;-52
2022/05/23 15:21:45;;;;;;;;;;;23.50;72.90;;;;;;5107301;28;19928;-50
2022/05/23 15:24:11;;;;;;;;;;;23.50;72.10;;;;;;5098155;28;19920;-52
2022/05/23 15:26:39;;;;;;;;;;;23.40;72.90;;;;;;5096666;28;19924;-52
2022/05/23 15:29:04;;;;;;;;;;;23.30;74.00;;;;;;5096818;28;19943;-49
2022/05/23 15:31:32;;;;;;;;;;;23.30;74.80;;;;;;5105361;28;20351;-51